Time;durP1;ratioP1;P1;durP2;ratioP2;P2;SDS_P1;SDS_P2;PMS_P1;PMS_P2;Temp;Humidity;BMP_temperature;BMP_pressure;BME280_temperature;BME280_humidity;BME280_pressure;Samples;Min_cycle;Max_cycle;Signal;HPM_P1;HPM_P2
2021/12/22 00:02:14;;;;;;;7.72;3.05;;;-19.50;71.60;-21.20;97964.00;;;;4932394;28;88147;-55
2021/12/22 00:04:45;;;;;;;7.72;2.90;;;-19.50;71.70;-21.30;97958.00;;;;4930288;28;87754;-54
2021/12/22 00:07:13;;;;;;;4.80;2.72;;;-19.60;71.30;-21.40;97951.00;;;;4953526;28;87150;-58
2021/12/22 00:09:40;;;;;;;5.90;2.90;;;-19.70;71.30;-21.40;97949.00;;;;4935770;28;88508;-56
2021/12/22 00:12:07;;;;;;;7.15;3.25;;;-19.70;71.60;-21.40;97946.00;;;;4952683;28;88554;-56
2021/12/22 00:14:33;;;;;;;6.28;3.05;;;-19.80;71.80;-21.40;97959.00;;;;4951165;28;87045;-54
2021/12/22 00:16:59;;;;;;;5.90;2.65;;;-19.80;71.60;-21.40;97953.00;;;;4951696;28;87708;-57
2021/12/22 00:19:26;;;;;;;6.30;2.83;;;-19.80;71.80;-21.50;97957.00;;;;4953055;28;88589;-58
2021/12/22 00:21:52;;;;;;;8.20;3.22;;;-19.80;71.70;-21.50;97939.00;;;;4953243;28;87390;-56
2021/12/22 00:24:18;;;;;;;6.18;2.85;;;-19.80;71.70;-21.50;97955.00;;;;4948457;28;87157;-57
2021/12/22 00:26:44;;;;;;;7.50;2.50;;;-19.80;71.40;-21.50;97949.00;;;;4942988;28;86325;-57
2021/12/22 00:29:12;;;;;;;4.10;2.40;;;-19.80;71.30;-21.50;97950.00;;;;4949827;28;86947;-57
2021/12/22 00:31:43;;;;;;;5.60;3.20;;;-19.90;71.30;-21.50;97951.00;;;;4947232;28;87435;-56
2021/12/22 00:34:16;;;;;;;;;;;-19.90;71.50;-21.50;97952.00;;;;4950899;28;87966;-55
2021/12/22 00:36:44;;;;;;;9.23;3.38;;;-19.90;71.70;-21.60;97951.00;;;;4952645;28;89443;-57
2021/12/22 00:39:11;;;;;;;10.55;3.47;;;-19.90;71.70;-21.60;97950.00;;;;4952115;28;87476;-57
2021/12/22 00:41:38;;;;;;;7.38;2.25;;;-19.90;71.70;-21.60;97952.00;;;;4947653;28;87487;-58
2021/12/22 00:44:05;;;;;;;11.20;3.83;;;-19.90;71.90;-21.60;97963.00;;;;4946715;28;88403;-58
2021/12/22 00:46:31;;;;;;;6.95;3.20;;;-19.90;72.00;-21.60;97955.00;;;;4950105;28;87128;-57
2021/12/22 00:48:57;;;;;;;8.45;3.08;;;-19.90;72.30;-21.60;97959.00;;;;4955685;28;88731;-57
2021/12/22 00:51:23;;;;;;;8.23;3.45;;;-19.90;72.40;-21.60;97951.00;;;;4945907;28;86273;-58
2021/12/22 00:53:50;;;;;;;12.38;3.30;;;-19.90;72.60;-21.60;97965.00;;;;4946688;28;88172;-56
2021/12/22 00:56:16;;;;;;;5.38;2.25;;;-19.90;72.40;-21.60;97966.00;;;;4953836;28;87619;-57
2021/12/22 00:58:42;;;;;;;10.18;4.28;;;-19.90;72.30;-21.60;97964.00;;;;4951609;28;88518;-57
2021/12/22 01:01:08;;;;;;;5.25;2.42;;;-19.90;71.80;-21.60;97978.00;;;;4945127;28;88301;-58
2021/12/22 01:03:35;;;;;;;8.45;3.45;;;-19.90;71.70;-21.60;97970.00;;;;4932232;28;88963;-58
2021/12/22 01:06:03;;;;;;;7.63;2.85;;;-19.90;71.70;-21.50;97968.00;;;;4955196;28;87405;-57
2021/12/22 01:08:30;;;;;;;7.95;3.03;;;-19.90;71.50;-21.60;97966.00;;;;4952788;28;88645;-56
2021/12/22 01:10:56;;;;;;;7.38;3.05;;;-19.90;71.30;-21.60;97964.00;;;;4951552;28;88322;-55
2021/12/22 01:13:23;;;;;;;5.07;2.40;;;-19.90;71.20;-21.60;97964.00;;;;4958768;28;87008;-58
2021/12/22 01:15:49;;;;;;;11.40;3.75;;;-20.00;71.00;-21.60;97966.00;;;;4954371;28;86919;-57
2021/12/22 01:18:26;;;;;;;7.25;3.10;;;-20.00;71.00;-21.70;97972.00;;;;4947188;28;90039;-57
2021/12/22 01:21:16;;;;;;;3.80;2.47;;;-20.00;71.10;-21.70;97980.00;;;;4919678;28;89571;-58
2021/12/22 01:23:58;;;;;;;5.68;2.80;;;-20.10;72.10;-21.70;97992.00;;;;4943635;28;89316;-57
2021/12/22 01:26:26;;;;;;;8.75;3.15;;;-20.00;71.60;-21.70;97993.00;;;;4948503;28;87564;-57
2021/12/22 01:28:53;;;;;;;6.05;3.30;;;-20.10;71.50;-21.70;97989.00;;;;4933780;28;89579;-58
2021/12/22 01:31:19;;;;;;;9.30;2.95;;;-20.10;71.50;-21.80;97978.00;;;;4927898;28;88568;-61
2021/12/22 01:33:45;;;;;;;8.02;2.95;;;-20.10;71.80;-21.80;97982.00;;;;4951854;28;86970;-62
2021/12/22 01:36:11;;;;;;;6.75;2.83;;;-20.10;71.90;-21.80;97980.00;;;;4936847;28;87004;-61
2021/12/22 01:38:38;;;;;;;6.30;2.63;;;-20.10;72.10;-21.80;97983.00;;;;4946067;28;87624;-61
2021/12/22 01:41:04;;;;;;;5.72;2.63;;;-20.10;71.90;-21.90;97973.00;;;;4952143;28;87270;-55
2021/12/22 01:43:30;;;;;;;7.47;3.03;;;-20.20;71.70;-21.90;97975.00;;;;4947376;28;87071;-57
2021/12/22 01:49:13;;;;;;;5.80;2.70;;;-20.20;72.10;-21.80;97961.00;;;;4937191;28;90197;-55
2021/12/22 01:51:56;;;;;;;8.95;2.65;;;-20.20;71.70;-21.80;97961.00;;;;4947251;28;88253;-58
2021/12/22 01:54:33;;;;;;;4.50;2.78;;;-20.10;72.00;-21.90;97977.00;;;;4929913;28;87274;-58
2021/12/22 01:57:01;;;;;;;8.07;3.53;;;-20.10;71.90;-21.90;97964.00;;;;4949956;28;87107;-57
2021/12/22 01:59:28;;;;;;;6.75;3.13;;;-20.20;71.50;-21.90;97976.00;;;;4949341;28;87393;-57
2021/12/22 02:01:59;;;;;;;9.07;3.70;;;-20.20;71.50;-21.90;97968.00;;;;4933058;28;88116;-56
2021/12/22 02:04:26;;;;;;;5.95;2.67;;;-20.20;71.30;-21.80;97962.00;;;;4944441;28;87008;-58
2021/12/22 02:06:52;;;;;;;4.43;2.28;;;-20.10;70.80;-21.80;97970.00;;;;4946491;28;86570;-56
2021/12/22 02:09:49;;;;;;;7.38;2.72;;;-20.10;70.40;-21.70;97969.00;;;;4958292;28;89107;-57
2021/12/22 02:12:15;;;;;;;6.13;2.72;;;-20.00;70.20;-21.60;97969.00;;;;4928582;28;88317;-64
2021/12/22 02:14:43;;;;;;;5.70;2.65;;;-20.00;69.80;-21.60;97980.00;;;;4952461;28;88370;-65
2021/12/22 02:17:11;;;;;;;5.53;2.30;;;-20.00;69.70;-21.50;97967.00;;;;4950006;28;87285;-65
2021/12/22 02:19:49;;;;;;;6.60;2.67;;;-19.90;69.70;-21.50;97972.00;;;;4950388;28;88431;-59
2021/12/22 02:22:17;;;;;;;5.25;2.20;;;-19.80;69.50;-21.40;97963.00;;;;4946094;28;87639;-58
2021/12/22 02:24:55;;;;;;;4.72;2.22;;;-19.80;69.50;-21.20;97968.00;;;;4941036;28;87442;-57
2021/12/22 02:27:35;;;;;;;6.07;2.28;;;-19.70;69.70;-21.20;97957.00;;;;4943721;28;87856;-58
2021/12/22 02:30:06;;;;;;;7.25;2.83;;;-19.70;69.20;-21.20;97962.00;;;;4951494;28;87615;-56
2021/12/22 02:35:06;;;;;;;7.65;3.75;;;-19.70;69.40;-21.20;97973.00;;;;4951838;28;88002;-57
2021/12/22 02:37:42;;;;;;;12.57;2.85;;;-19.70;69.40;-21.20;97962.00;;;;4932297;28;87749;-58
2021/12/22 02:40:16;;;;;;;6.85;2.85;;;-19.70;69.60;-21.20;97985.00;;;;4944175;28;89702;-62
2021/12/22 02:42:46;;;;;;;7.97;3.33;;;-19.70;69.10;-21.20;97985.00;;;;4943581;28;89290;-62
2021/12/22 02:45:15;;;;;;;7.75;2.70;;;-19.70;69.80;-21.20;97969.00;;;;4946689;28;87134;-62
2021/12/22 02:47:42;;;;;;;10.43;2.97;;;-19.70;69.80;-21.20;97981.00;;;;4953526;28;87029;-61
2021/12/22 02:50:11;;;;;;;5.90;3.20;;;-19.60;70.10;-21.20;97970.00;;;;4951315;28;88709;-62
2021/12/22 02:55:15;;;;;;;7.32;3.00;;;-19.70;70.10;-21.20;97970.00;;;;4943979;28;86948;-56
2021/12/22 02:57:46;;;;;;;6.32;2.95;;;-19.70;70.80;-21.30;97963.00;;;;4951067;28;86655;-52
2021/12/22 03:05:28;;;;;;;9.48;4.07;;;-19.70;70.20;-21.30;97949.00;;;;4952250;28;88789;-55
2021/12/22 03:07:55;;;;;;;10.13;4.35;;;-19.70;70.20;-21.20;97961.00;;;;4948453;28;87131;-56
2021/12/22 03:10:22;;;;;;;9.55;4.18;;;-19.60;70.70;-21.20;97967.00;;;;4951256;28;88039;-53
2021/12/22 03:12:56;;;;;;;9.65;3.60;;;-19.60;70.60;-21.20;97975.00;;;;4954916;28;87556;-55
2021/12/22 03:15:22;;;;;;;11.75;5.60;;;-19.60;70.60;-21.20;97981.00;;;;4948494;28;87242;-54
2021/12/22 03:17:49;;;;;;;9.73;4.47;;;-19.70;70.40;-21.30;97970.00;;;;4949368;28;88485;-59
2021/12/22 03:20:16;;;;;;;13.32;9.02;;;-19.60;70.40;-21.30;97966.00;;;;4951410;28;87600;-55
2021/12/22 03:22:45;;;;;;;8.65;3.60;;;-19.70;70.40;-21.30;97963.00;;;;4952082;28;88388;-55
2021/12/22 03:25:16;;;;;;;11.07;4.22;;;-19.70;70.70;-21.30;97959.00;;;;4940875;28;87063;-54
2021/12/22 03:27:49;;;;;;;11.80;4.18;;;-19.70;70.70;-21.40;97951.00;;;;4943167;28;87552;-57
2021/12/22 03:30:18;;;;;;;10.25;5.10;;;-19.70;70.80;-21.40;97958.00;;;;4946529;28;88483;-58
2021/12/22 03:32:45;;;;;;;8.55;4.57;;;-19.80;70.80;-21.40;97956.00;;;;4948220;28;89642;-56
2021/12/22 03:35:16;;;;;;;11.18;4.05;;;-19.80;70.90;-21.50;97952.00;;;;4950889;28;88551;-53
2021/12/22 03:37:45;;;;;;;7.43;3.85;;;-19.80;72.00;-21.40;97963.00;;;;4950018;28;88123;-55
2021/12/22 03:40:11;;;;;;;13.60;5.13;;;-19.80;71.60;-21.50;97971.00;;;;4944857;28;87611;-52
2021/12/22 03:42:37;;;;;;;9.98;4.22;;;-19.80;71.50;-21.40;97954.00;;;;4951248;28;87880;-58
2021/12/22 03:45:04;;;;;;;10.05;4.00;;;-19.80;71.50;-21.40;97965.00;;;;4929035;28;87446;-63
2021/12/22 03:47:31;;;;;;;11.35;4.53;;;-19.80;71.80;-21.40;97959.00;;;;4953967;28;86637;-65
2021/12/22 03:49:57;;;;;;;9.60;4.03;;;-19.70;71.80;-21.30;97964.00;;;;4948441;28;88482;-65
2021/12/22 03:52:23;;;;;;;9.77;4.50;;;-19.70;71.00;-21.30;97969.00;;;;4949286;28;87297;-64
2021/12/22 03:54:54;;;;;;;10.40;4.78;;;-19.70;70.70;-21.20;97986.00;;;;4944911;28;88362;-65
2021/12/22 03:57:20;;;;;;;9.05;4.20;;;-19.70;70.60;-21.20;97968.00;;;;4949553;28;87027;-64
2021/12/22 03:59:47;;;;;;;11.98;4.30;;;-19.60;71.60;-21.20;97973.00;;;;4953234;28;87811;-66
2021/12/22 04:02:14;;;;;;;22.55;4.80;;;-19.60;70.90;-21.20;97970.00;;;;4950652;28;88134;-64
2021/12/22 04:04:43;;;;;;;11.45;4.93;;;-19.60;70.50;-21.10;97971.00;;;;4949955;28;87526;-66
2021/12/22 04:07:09;;;;;;;9.35;4.88;;;-19.50;70.50;-21.10;97975.00;;;;4956738;28;88618;-65
2021/12/22 04:09:36;;;;;;;14.10;4.78;;;-19.60;70.10;-21.10;97979.00;;;;4954735;28;88935;-65
2021/12/22 04:12:02;;;;;;;9.57;4.47;;;-19.60;69.80;-21.10;97983.00;;;;4952644;28;87193;-61
2021/12/22 04:14:28;;;;;;;6.78;3.20;;;-19.50;70.10;-21.10;97979.00;;;;4959299;28;86989;-66
2021/12/22 04:16:54;;;;;;;11.45;4.55;;;-19.50;70.10;-21.10;97989.00;;;;4951865;28;87359;-66
2021/12/22 04:19:21;;;;;;;9.70;3.70;;;-19.50;70.20;-21.10;97991.00;;;;4934016;28;89120;-65
2021/12/22 04:21:49;;;;;;;7.68;3.92;;;-19.50;70.40;-21.10;97992.00;;;;4955721;28;89299;-65
2021/12/22 04:24:15;;;;;;;10.20;3.90;;;-19.50;70.20;-21.10;97986.00;;;;4946620;28;87552;-62
2021/12/22 04:26:42;;;;;;;13.15;3.40;;;-19.50;70.00;-21.10;97999.00;;;;4950807;28;88507;-59
2021/12/22 04:29:10;;;;;;;5.88;3.00;;;-19.50;70.30;-21.20;97996.00;;;;4945785;28;88502;-61
2021/12/22 04:31:37;;;;;;;9.93;4.00;;;-19.50;70.20;-21.10;98004.00;;;;4952564;28;87141;-58
2021/12/22 04:34:08;;;;;;;8.93;3.28;;;-19.60;69.80;-21.10;98000.00;;;;4948932;28;87130;-61
2021/12/22 04:36:36;;;;;;;9.20;2.90;;;-19.50;70.30;-21.10;97981.00;;;;4956363;28;86650;-58
2021/12/22 04:39:05;;;;;;;5.45;2.95;;;-19.50;69.80;-21.10;97987.00;;;;4951594;28;87563;-61
2021/12/22 04:41:31;;;;;;;7.13;2.75;;;-19.50;69.70;-21.10;97987.00;;;;4947907;28;88522;-59
2021/12/22 04:43:58;;;;;;;5.72;2.72;;;-19.50;69.60;-21.00;97997.00;;;;4944278;28;88882;-61
2021/12/22 04:46:24;;;;;;;6.53;2.97;;;-19.50;68.90;-21.00;97994.00;;;;4947290;28;87060;-57
2021/12/22 04:48:50;;;;;;;7.03;3.20;;;-19.50;69.20;-21.00;97992.00;;;;4954472;28;88440;-61
2021/12/22 04:51:30;;;;;;;6.90;2.30;;;-19.40;68.80;-21.00;97998.00;;;;4954129;28;88417;-58
2021/12/22 04:56:24;;;;;;;5.47;2.45;;;-19.50;68.60;-21.10;97986.00;;;;4947830;28;87958;-58
2021/12/22 04:58:50;;;;;;;4.68;2.20;;;-19.60;68.80;-21.10;97983.00;;;;4955731;28;88637;-60
2021/12/22 05:01:16;;;;;;;6.25;2.50;;;-19.60;69.20;-21.10;97981.00;;;;4950840;28;87841;-61
2021/12/22 05:03:42;;;;;;;4.50;2.45;;;-19.50;69.40;-21.10;97992.00;;;;4947901;28;87055;-62
2021/12/22 05:06:09;;;;;;;7.95;2.20;;;-19.60;69.20;-21.20;97977.00;;;;4952268;28;87255;-61
2021/12/22 05:08:35;;;;;;;4.93;2.45;;;-19.60;68.90;-21.20;97994.00;;;;4951743;28;89965;-60
2021/12/22 05:11:01;;;;;;;6.80;2.63;;;-19.60;69.00;-21.20;98000.00;;;;4951816;28;89365;-60
2021/12/22 05:13:29;;;;;;;4.90;2.47;;;-19.70;68.40;-21.30;97989.00;;;;4941209;28;87581;-60
2021/12/22 05:15:55;;;;;;;6.28;2.55;;;-19.70;68.40;-21.40;97989.00;;;;4953449;28;87127;-60
2021/12/22 05:20:49;;;;;;;5.63;2.97;;;-19.80;68.40;-21.40;97990.00;;;;4954454;28;88501;-59
2021/12/22 05:23:17;;;;;;;6.85;3.45;;;-19.80;68.60;-21.50;97987.00;;;;4948749;28;86984;-60
2021/12/22 05:25:44;;;;;;;6.57;2.50;;;-19.80;68.50;-21.50;97996.00;;;;4949118;28;86252;-60
2021/12/22 05:28:10;;;;;;;5.95;2.60;;;-19.90;68.20;-21.60;97988.00;;;;4949138;28;88482;-58
2021/12/22 05:30:36;;;;;;;5.63;3.20;;;-19.90;68.20;-21.60;97991.00;;;;4947663;28;87364;-61
2021/12/22 05:33:03;;;;;;;7.30;3.28;;;-20.00;68.30;-21.60;97996.00;;;;4950079;28;88029;-60
2021/12/22 05:35:29;;;;;;;7.82;3.00;;;-20.00;68.50;-21.60;97989.00;;;;4950868;28;87078;-60
2021/12/22 05:37:55;;;;;;;7.65;2.67;;;-20.00;68.80;-21.60;97986.00;;;;4948109;28;87703;-60
2021/12/22 05:40:21;;;;;;;4.25;2.55;;;-20.00;68.60;-21.60;97987.00;;;;4953324;28;87669;-60
2021/12/22 05:42:47;;;;;;;13.32;4.22;;;-20.00;68.20;-21.60;97981.00;;;;4944971;28;87275;-59
2021/12/22 05:45:14;;;;;;;5.63;2.35;;;-20.00;68.30;-21.60;97989.00;;;;4937615;28;87816;-60
2021/12/22 05:47:40;;;;;;;6.60;2.72;;;-20.00;68.50;-21.60;97997.00;;;;4953160;28;88597;-61
2021/12/22 05:50:07;;;;;;;5.88;2.33;;;-20.00;68.80;-21.60;97990.00;;;;4948438;28;87807;-61
2021/12/22 05:52:34;;;;;;;7.30;3.28;;;-20.00;69.00;-21.60;97992.00;;;;4945600;28;87689;-59
2021/12/22 05:55:01;;;;;;;3.58;1.67;;;-20.00;68.80;-21.60;97997.00;;;;4949282;28;86945;-59
2021/12/22 05:57:27;;;;;;;3.95;1.90;;;-19.90;68.80;-21.60;97989.00;;;;4947811;28;89384;-60
2021/12/22 05:59:53;;;;;;;6.13;2.45;;;-20.00;68.40;-21.60;97983.00;;;;4937166;28;88690;-60
2021/12/22 06:02:19;;;;;;;6.78;2.90;;;-20.00;68.10;-21.50;97986.00;;;;4946765;28;87321;-61
2021/12/22 06:04:45;;;;;;;7.72;2.80;;;-19.90;68.90;-21.50;97996.00;;;;4949256;28;87675;-60
2021/12/22 06:07:11;;;;;;;4.40;2.42;;;-19.90;68.20;-21.40;98000.00;;;;4953489;28;88563;-60
2021/12/22 06:09:38;;;;;;;4.80;2.00;;;-19.80;68.20;-21.40;97994.00;;;;4950963;28;88657;-61
2021/12/22 06:12:04;;;;;;;5.82;2.78;;;-19.80;68.30;-21.40;97994.00;;;;4952688;28;87174;-60
2021/12/22 06:14:31;;;;;;;8.75;3.33;;;-19.80;68.20;-21.40;97996.00;;;;4954120;28;86987;-60
2021/12/22 06:16:57;;;;;;;8.02;2.78;;;-19.70;68.40;-21.40;97995.00;;;;4951788;28;87519;-59
2021/12/22 06:19:23;;;;;;;5.43;3.13;;;-19.80;68.20;-21.30;98001.00;;;;4945920;28;87861;-60
2021/12/22 06:21:50;;;;;;;9.52;3.33;;;-19.80;68.20;-21.20;98009.00;;;;4942990;28;88420;-59
2021/12/22 06:24:16;;;;;;;7.18;3.13;;;-19.70;68.40;-21.20;98000.00;;;;4927606;28;87731;-60
2021/12/22 06:26:42;;;;;;;8.88;2.85;;;-19.70;68.40;-21.20;98002.00;;;;4943521;28;87841;-59
2021/12/22 06:29:08;;;;;;;9.20;4.03;;;-19.70;68.40;-21.10;97992.00;;;;4947469;28;87516;-61
2021/12/22 06:31:35;;;;;;;8.40;3.28;;;-19.60;68.50;-21.10;97997.00;;;;4947318;28;87279;-60
2021/12/22 06:34:01;;;;;;;9.23;4.20;;;-19.60;68.10;-21.10;98004.00;;;;4946398;28;88019;-60
2021/12/22 06:36:27;;;;;;;8.00;3.20;;;-19.60;67.80;-21.10;98004.00;;;;4941044;28;87094;-60
2021/12/22 06:38:53;;;;;;;7.00;3.60;;;-19.60;67.70;-21.10;98017.00;;;;4939213;28;87614;-61
2021/12/22 06:41:19;;;;;;;10.93;4.25;;;-19.60;67.70;-21.10;97999.00;;;;4943586;28;87065;-59
2021/12/22 06:43:45;;;;;;;8.20;3.33;;;-19.50;67.70;-21.00;98005.00;;;;4939841;28;87532;-60
2021/12/22 06:46:11;;;;;;;6.25;3.10;;;-19.50;67.80;-21.00;98001.00;;;;4942705;28;89575;-59
2021/12/22 06:48:38;;;;;;;8.00;3.67;;;-19.50;67.30;-21.00;98009.00;;;;4949387;28;87418;-61
2021/12/22 06:51:04;;;;;;;6.93;3.38;;;-19.50;67.10;-21.00;97992.00;;;;4952278;28;87197;-63
2021/12/22 06:53:34;;;;;;;9.07;3.00;;;-19.50;67.00;-21.00;98013.00;;;;4931636;28;87415;-58
2021/12/22 06:56:01;;;;;;;7.03;3.47;;;-19.50;66.90;-21.00;98012.00;;;;4933891;28;88770;-61
2021/12/22 06:58:28;;;;;;;6.57;3.33;;;-19.50;66.90;-21.00;98024.00;;;;4949041;28;87312;-60
2021/12/22 07:00:55;;;;;;;6.38;3.53;;;-19.50;67.00;-21.00;98023.00;;;;4952381;28;88291;-60
2021/12/22 07:03:22;;;;;;;7.50;2.50;;;-19.50;66.90;-21.00;98021.00;;;;4930718;28;87210;-60
2021/12/22 07:05:48;;;;;;;9.18;3.20;;;-19.50;66.90;-20.90;98005.00;;;;4952729;28;88657;-61
2021/12/22 07:08:14;;;;;;;9.80;3.28;;;-19.40;67.00;-20.90;98008.00;;;;4947736;28;87369;-59
2021/12/22 07:10:40;;;;;;;8.88;2.40;;;-19.40;66.70;-20.80;98004.00;;;;4950774;28;88228;-62
2021/12/22 07:13:07;;;;;;;9.82;4.30;;;-19.30;66.70;-20.90;98010.00;;;;4956955;28;88609;-57
2021/12/22 07:15:33;;;;;;;8.88;3.42;;;-19.40;66.60;-21.00;98016.00;;;;4953019;28;87547;-59
2021/12/22 07:18:01;;;;;;;7.45;3.30;;;-19.50;66.80;-21.00;98010.00;;;;4947109;28;88880;-61
2021/12/22 07:20:27;;;;;;;5.90;2.05;;;-19.50;66.90;-21.00;98030.00;;;;4949051;28;87031;-61
2021/12/22 07:22:53;;;;;;;8.98;3.75;;;-19.60;66.90;-21.10;98014.00;;;;4952310;28;87133;-61
2021/12/22 07:25:23;;;;;;;6.50;3.03;;;-19.60;67.00;-21.20;98029.00;;;;4945661;28;88786;-60
2021/12/22 07:27:50;;;;;;;11.45;4.05;;;-19.70;67.20;-21.20;98029.00;;;;4936799;28;87403;-60
2021/12/22 07:30:16;;;;;;;20.27;4.40;;;-19.70;67.40;-21.20;98028.00;;;;4937791;28;87161;-60
2021/12/22 07:32:42;;;;;;;5.72;3.03;;;-19.70;67.50;-21.20;98026.00;;;;4950575;28;87133;-59
2021/12/22 07:35:29;;;;;;;6.32;2.92;;;-19.60;67.70;-21.10;98044.00;;;;4952074;28;89628;-61
2021/12/22 07:38:10;;;;;;;8.00;2.67;;;-19.50;67.60;-21.20;98029.00;;;;4950451;28;88193;-60
2021/12/22 07:40:37;;;;;;;5.88;2.85;;;-19.70;67.50;-21.10;98032.00;;;;4942313;28;87131;-60
2021/12/22 07:43:03;;;;;;;10.07;4.22;;;-19.60;67.70;-21.00;98031.00;;;;4947923;28;87918;-61
2021/12/22 07:45:29;;;;;;;11.68;5.20;;;-19.50;67.80;-20.90;98018.00;;;;4942209;28;87649;-58
2021/12/22 07:47:55;;;;;;;8.20;3.88;;;-19.40;67.60;-20.80;98016.00;;;;4953231;28;87479;-61
2021/12/22 07:50:22;;;;;;;13.68;3.58;;;-19.30;67.30;-20.80;98026.00;;;;4955927;28;87432;-59
2021/12/22 07:52:48;;;;;;;6.30;3.03;;;-19.30;66.90;-20.70;98024.00;;;;4916763;28;87424;-61
2021/12/22 07:55:14;;;;;;;10.00;3.60;;;-19.30;66.60;-20.70;98025.00;;;;4950168;28;88764;-60
2021/12/22 07:57:40;;;;;;;6.55;3.42;;;-19.20;66.90;-20.60;98038.00;;;;4952639;28;87375;-59
2021/12/22 08:00:08;;;;;;;7.10;3.58;;;-19.20;66.60;-20.60;98031.00;;;;4953476;28;88282;-60
2021/12/22 08:02:40;;;;;;;17.27;6.93;;;-19.10;66.30;-20.50;98026.00;;;;4950286;28;87966;-59
2021/12/22 08:05:06;;;;;;;9.05;3.25;;;-19.10;65.80;-20.50;98038.00;;;;4950404;28;87661;-60
2021/12/22 08:07:34;;;;;;;5.20;3.03;;;-19.00;65.50;-20.40;98036.00;;;;4936474;28;87493;-60
2021/12/22 08:10:05;;;;;;;8.52;3.00;;;-19.00;65.30;-20.30;98030.00;;;;4954214;28;87430;-58
2021/12/22 08:12:32;;;;;;;7.82;3.55;;;-18.90;64.90;-20.30;98028.00;;;;4948061;28;87314;-61
2021/12/22 08:14:58;;;;;;;8.77;3.42;;;-18.80;64.60;-20.30;98029.00;;;;4937442;28;88651;-60
2021/12/22 08:17:27;;;;;;;9.70;3.40;;;-18.80;64.20;-20.20;98030.00;;;;4950912;28;86601;-57
2021/12/22 08:19:54;;;;;;;10.93;3.97;;;-18.70;64.50;-20.20;98027.00;;;;4952961;28;88689;-60
2021/12/22 08:22:21;;;;;;;7.78;3.05;;;-18.80;64.30;-20.30;98022.00;;;;4957909;28;87844;-59
2021/12/22 08:24:47;;;;;;;6.35;3.65;;;-18.90;64.70;-20.30;98035.00;;;;4948677;28;88641;-59
2021/12/22 08:27:13;;;;;;;6.22;2.70;;;-18.90;64.90;-20.30;98027.00;;;;4911763;28;88155;-59
2021/12/22 08:29:42;;;;;;;7.28;3.38;;;-18.90;65.10;-20.30;98039.00;;;;4912678;28;87520;-60
2021/12/22 08:32:13;;;;;;;7.25;3.05;;;-18.90;65.30;-20.30;98038.00;;;;4916373;28;87329;-59
2021/12/22 08:34:41;;;;;;;7.40;3.50;;;-18.80;65.40;-20.30;98044.00;;;;4910262;28;87569;-59
2021/12/22 08:39:55;;;;;;;7.75;3.90;;;-18.80;65.60;-20.30;98027.00;;;;4913247;28;88530;-59
2021/12/22 08:42:22;;;;;;;8.75;5.03;;;-18.80;65.50;-20.30;98028.00;;;;4909471;28;86281;-60
2021/12/22 08:44:49;;;;;;;7.15;3.47;;;-18.90;65.40;-20.40;98029.00;;;;4906603;28;88286;-59
2021/12/22 08:47:17;;;;;;;7.97;4.00;;;-18.90;65.70;-20.40;98028.00;;;;4910261;28;89627;-60
2021/12/22 08:49:45;;;;;;;6.38;3.50;;;-18.90;65.90;-20.40;98022.00;;;;4912056;28;87968;-60
2021/12/22 08:52:11;;;;;;;12.32;4.28;;;-18.90;65.80;-20.40;98025.00;;;;4904347;28;88209;-62
2021/12/22 08:54:38;;;;;;;8.15;3.50;;;-19.00;65.50;-20.40;98030.00;;;;4902610;28;88670;-59
2021/12/22 08:57:05;;;;;;;7.65;3.53;;;-19.00;65.50;-20.40;98032.00;;;;4904876;28;87527;-59
2021/12/22 08:59:31;;;;;;;9.52;4.00;;;-18.90;65.60;-20.40;98021.00;;;;4911638;28;88083;-59
2021/12/22 09:01:58;;;;;;;10.77;4.07;;;-19.00;65.10;-20.40;98032.00;;;;4913344;28;87976;-61
2021/12/22 09:04:25;;;;;;;12.13;4.63;;;-18.90;65.20;-20.30;98018.00;;;;4912025;28;88687;-60
2021/12/22 09:06:52;;;;;;;8.60;3.42;;;-18.80;65.30;-20.30;98032.00;;;;4926591;28;87339;-59
2021/12/22 09:09:20;;;;;;;11.30;4.05;;;-18.80;65.30;-20.30;98029.00;;;;4915611;28;89103;-60
2021/12/22 09:11:48;;;;;;;8.63;4.30;;;-18.90;64.80;-20.30;98034.00;;;;4913677;28;87135;-58
2021/12/22 09:14:16;;;;;;;8.13;3.10;;;-18.90;64.70;-20.30;98032.00;;;;4918767;28;88396;-61
2021/12/22 09:16:43;;;;;;;10.77;5.05;;;-18.90;64.90;-20.30;98044.00;;;;4911680;28;88415;-62
2021/12/22 09:19:10;;;;;;;15.13;4.45;;;-18.80;65.10;-20.40;98039.00;;;;4912612;28;87089;-61
2021/12/22 09:21:37;;;;;;;11.52;4.03;;;-18.90;64.90;-20.40;98037.00;;;;4916960;28;87482;-61
2021/12/22 09:24:05;;;;;;;8.82;3.75;;;-18.90;65.00;-20.40;98046.00;;;;4911067;28;88563;-61
2021/12/22 09:26:31;;;;;;;11.80;5.45;;;-18.90;65.30;-20.40;98034.00;;;;4936441;28;87349;-60
2021/12/22 09:28:58;;;;;;;9.35;3.70;;;-18.90;65.40;-20.40;98036.00;;;;4930598;28;87780;-59
2021/12/22 09:31:25;;;;;;;7.38;3.88;;;-19.00;65.10;-20.40;98050.00;;;;4950186;28;86464;-61
2021/12/22 09:33:51;;;;;;;9.40;3.92;;;-19.00;65.30;-20.50;98035.00;;;;4946835;28;87460;-60
2021/12/22 09:36:18;;;;;;;13.07;4.45;;;-19.00;65.30;-20.40;98046.00;;;;4935171;28;87263;-60
2021/12/22 09:38:45;;;;;;;9.93;4.88;;;-19.00;65.50;-20.40;98036.00;;;;4953929;28;88993;-59
2021/12/22 09:41:12;;;;;;;13.73;4.70;;;-18.90;66.20;-20.30;98035.00;;;;4951930;28;87193;-59
2021/12/22 09:43:39;;;;;;;10.90;4.05;;;-18.80;66.20;-20.10;98030.00;;;;4943301;28;89237;-60
2021/12/22 09:46:10;;;;;;;9.70;4.63;;;-18.70;65.80;-20.10;98021.00;;;;4945744;28;87536;-59
2021/12/22 09:53:53;;;;;;;12.95;6.25;;;-18.50;64.80;-20.00;98018.00;;;;4946350;28;88584;-61
2021/12/22 09:56:27;;;;;;;9.20;3.85;;;-18.60;64.10;-19.90;98014.00;;;;4948763;28;88402;-59
2021/12/22 09:58:54;;;;;;;9.45;4.22;;;-18.50;64.50;-19.80;98008.00;;;;4951139;28;87884;-62
2021/12/22 10:01:25;;;;;;;9.25;4.25;;;-18.40;63.90;-19.70;98021.00;;;;4946224;28;87660;-60
2021/12/22 10:03:53;;;;;;;;;;;-18.30;63.20;-19.60;98038.00;;;;4942017;28;89611;-59
2021/12/22 10:06:20;;;;;;;9.50;4.10;;;-18.20;63.30;-19.50;98040.00;;;;4951871;28;87363;-60
2021/12/22 10:09:02;;;;;;;9.77;5.55;;;-18.10;63.20;-19.50;98024.00;;;;4951554;28;87395;-58
2021/12/22 10:11:33;;;;;;;8.90;4.75;;;-18.20;62.10;-19.60;98033.00;;;;4942675;28;87027;-59
2021/12/22 10:13:59;;;;;;;6.57;3.95;;;-18.30;62.60;-19.60;98030.00;;;;4951813;28;87838;-60
2021/12/22 10:16:29;;;;;;;8.48;3.95;;;-18.20;63.50;-19.60;98024.00;;;;4950281;28;87416;-60
2021/12/22 10:19:09;;;;;;;9.07;4.57;;;-18.30;63.00;-19.80;98036.00;;;;4950367;28;87414;-60
2021/12/22 10:22:00;;;;;;;8.85;3.97;;;-18.30;63.10;-19.90;98039.00;;;;4935565;28;87437;-61
2021/12/22 10:24:43;;;;;;;10.82;4.47;;;-18.50;62.50;-19.90;98033.00;;;;4946973;28;87685;-62
2021/12/22 10:27:20;;;;;;;7.07;3.40;;;-18.40;63.10;-19.90;98045.00;;;;4947616;28;88451;-60
2021/12/22 10:29:47;;;;;;;9.23;4.57;;;-18.50;62.90;-19.90;98036.00;;;;4945024;28;88485;-57
2021/12/22 10:32:16;;;;;;;8.48;3.83;;;-18.50;63.10;-19.90;98049.00;;;;4933806;28;87089;-55
2021/12/22 10:35:02;;;;;;;7.25;3.92;;;-18.50;62.90;-20.10;98040.00;;;;4948726;28;87461;-61
2021/12/22 10:37:42;;;;;;;9.32;4.35;;;-18.60;62.80;-20.00;98030.00;;;;4951343;28;87332;-58
2021/12/22 10:40:21;;;;;;;9.50;4.30;;;-18.60;63.50;-20.00;98040.00;;;;4948316;28;86996;-61
2021/12/22 10:42:48;;;;;;;8.73;3.20;;;-18.50;63.80;-20.00;98031.00;;;;4944884;28;88859;-60
2021/12/22 10:45:17;;;;;;;8.25;3.55;;;-18.60;63.60;-20.00;98054.00;;;;4945723;28;87634;-60
2021/12/22 10:50:44;;;;;;;6.75;3.90;;;-18.50;65.00;-20.10;98044.00;;;;4952697;28;87434;-60
2021/12/22 10:53:14;;;;;;;5.88;2.28;;;-18.60;63.90;-20.10;98037.00;;;;4931584;28;87304;-61
2021/12/22 10:55:51;;;;;;;8.27;3.60;;;-18.60;64.20;-20.30;98049.00;;;;4946830;28;89859;-60
2021/12/22 10:58:29;;;;;;;7.38;3.28;;;-18.80;63.90;-20.30;98052.00;;;;4953119;28;89540;-61
2021/12/22 11:01:17;;;;;;;7.03;3.53;;;-18.80;64.10;-20.30;98057.00;;;;4934982;28;87100;-59
2021/12/22 11:03:50;;;;;;;6.50;2.85;;;-18.90;63.90;-20.40;98044.00;;;;4948996;28;87451;-59
2021/12/22 11:06:28;;;;;;;9.07;3.75;;;-18.90;64.50;-20.30;98047.00;;;;4952696;28;87536;-62
2021/12/22 11:09:04;;;;;;;6.18;3.65;;;-18.80;65.10;-20.30;98059.00;;;;4952463;28;87385;-62
2021/12/22 11:11:40;;;;;;;9.55;3.67;;;-18.80;64.90;-20.30;98054.00;;;;4954450;28;87380;-60
2021/12/22 11:14:19;;;;;;;6.10;3.17;;;-18.80;64.50;-20.30;98063.00;;;;4952638;28;86475;-60
2021/12/22 11:17:11;;;;;;;5.75;2.92;;;-18.80;63.80;-20.30;98063.00;;;;4935733;28;88424;-58